createdAt,value
2023-03-11T00:00:47.090Z,5.80
2023-03-11T00:03:15.430Z,5.80
2023-03-11T00:05:45.050Z,5.70
2023-03-11T00:08:18.721Z,5.70
2023-03-11T00:10:48.078Z,5.60
2023-03-11T00:13:16.214Z,5.60
2023-03-11T00:15:45.550Z,5.60
2023-03-11T00:18:12.598Z,5.60
2023-03-11T00:20:43.024Z,5.50
2023-03-11T00:25:38.733Z,5.50
2023-03-11T00:28:07.522Z,5.50
2023-03-11T00:33:02.236Z,5.50
2023-03-11T00:35:31.923Z,5.50
2023-03-11T00:38:02.094Z,5.50
2023-03-11T00:40:30.864Z,5.50
2023-03-11T00:42:58.772Z,5.50
2023-03-11T00:45:27.034Z,5.50
2023-03-11T00:50:28.054Z,5.50
2023-03-11T00:55:30.918Z,5.50
2023-03-11T00:58:05.141Z,5.50
2023-03-11T01:05:34.734Z,5.60
2023-03-11T01:08:03.607Z,5.60
2023-03-11T01:10:36.194Z,5.60
2023-03-11T01:13:03.918Z,5.70
2023-03-11T01:15:36.967Z,5.70
2023-03-11T01:18:05.555Z,5.60
2023-03-11T01:23:01.075Z,5.60
2023-03-11T01:25:28.817Z,5.60
2023-03-11T01:30:27.192Z,5.70
2023-03-11T01:32:55.893Z,5.60
2023-03-11T01:35:25.351Z,5.70
2023-03-11T01:40:35.888Z,5.70
2023-03-11T01:43:26.955Z,5.70
2023-03-11T01:50:52.459Z,5.80
2023-03-11T01:55:48.482Z,2.80
2023-03-11T01:58:20.970Z,5.80
2023-03-11T02:03:22.666Z,5.80
2023-03-11T02:05:52.561Z,5.80
2023-03-11T02:08:19.931Z,5.90
2023-03-11T02:10:48.208Z,5.80
2023-03-11T02:13:16.779Z,5.80
2023-03-11T02:18:14.649Z,5.80
2023-03-11T02:20:50.849Z,5.80
2023-03-11T02:23:21.304Z,5.80
2023-03-11T02:26:15.347Z,5.80
2023-03-11T02:28:45.794Z,5.80
2023-03-11T02:31:13.947Z,5.80
2023-03-11T02:33:43.114Z,5.80
2023-03-11T02:36:34.131Z,5.80
2023-03-11T02:41:30.389Z,5.80
2023-03-11T02:43:58.190Z,5.80
2023-03-11T02:48:54.307Z,5.80
2023-03-11T02:53:54.760Z,5.80
2023-03-11T03:08:40.680Z,5.80
2023-03-11T03:11:07.757Z,5.80
2023-03-11T03:13:34.718Z,5.80
2023-03-11T03:18:29.346Z,5.90
2023-03-11T03:25:51.183Z,5.90
2023-03-11T03:28:18.261Z,6.00
2023-03-11T03:35:43.946Z,6.00
2023-03-11T03:43:20.010Z,6.00
2023-03-11T03:45:59.749Z,6.00
2023-03-11T03:48:30.614Z,6.00
2023-03-11T03:51:03.491Z,6.00
2023-03-11T03:58:25.836Z,6.00
2023-03-11T04:00:57.111Z,5.90
2023-03-11T04:06:16.803Z,5.90
2023-03-11T04:08:44.172Z,5.90
2023-03-11T04:11:12.345Z,5.80
2023-03-11T04:16:07.915Z,5.90
2023-03-11T04:18:35.357Z,5.90
2023-03-11T04:21:06.681Z,5.90
2023-03-11T04:23:34.439Z,5.90
2023-03-11T04:26:03.051Z,5.90
2023-03-11T04:48:11.123Z,5.90
2023-03-11T05:10:32.146Z,6.10
2023-03-11T05:22:59.296Z,6.20
2023-03-11T05:30:23.708Z,6.30
2023-03-11T05:40:18.307Z,6.30
2023-03-11T05:45:14.627Z,6.40
2023-03-11T05:47:43.998Z,6.40
2023-03-11T05:50:13.466Z,6.30
2023-03-11T05:55:11.523Z,6.40
2023-03-11T05:57:40.341Z,6.30
2023-03-11T06:00:12.147Z,6.30
2023-03-11T06:15:30.686Z,6.30
2023-03-11T06:17:59.366Z,6.20
2023-03-11T06:20:27.268Z,6.20
2023-03-11T06:27:53.373Z,6.20
2023-03-11T06:30:21.632Z,6.20
2023-03-11T06:37:51.219Z,6.20
2023-03-11T06:42:48.729Z,6.10
2023-03-11T06:57:37.815Z,6.10
2023-03-11T07:00:12.354Z,6.40
2023-03-11T07:05:10.039Z,6.10
2023-03-11T07:10:06.051Z,6.10
2023-03-11T07:15:01.006Z,6.10
2023-03-11T07:32:14.308Z,6.00
2023-03-11T07:42:05.643Z,6.10
2023-03-11T07:47:05.197Z,6.00
2023-03-11T08:01:50.643Z,6.00
2023-03-11T08:06:47.251Z,6.10
2023-03-11T08:11:42.104Z,6.10
2023-03-11T08:24:00.924Z,6.20
2023-03-11T08:28:56.225Z,6.10
2023-03-11T08:31:26.662Z,6.10
2023-03-11T08:33:57.512Z,6.20
2023-03-11T08:36:24.607Z,6.20
2023-03-11T08:41:19.673Z,6.30
2023-03-11T08:43:47.112Z,6.30
2023-03-11T08:46:27.627Z,6.40
2023-03-11T08:48:55.688Z,6.40
2023-03-11T08:51:24.166Z,6.50
2023-03-11T08:53:51.592Z,6.60
2023-03-11T08:58:47.604Z,6.70
2023-03-11T09:06:15.570Z,6.90
2023-03-11T09:08:45.356Z,6.80
2023-03-11T09:11:15.602Z,6.80
2023-03-11T09:13:43.613Z,6.80
2023-03-11T09:16:17.196Z,6.80
2023-03-11T09:21:13.680Z,6.80
2023-03-11T09:23:43.607Z,6.80
2023-03-11T09:28:39.974Z,6.90
2023-03-11T09:33:40.293Z,7.00
2023-03-11T09:36:08.194Z,7.00
2023-03-11T09:41:17.415Z,7.10
2023-03-11T09:43:59.493Z,7.20
2023-03-11T09:46:52.183Z,7.30
2023-03-11T09:49:47.031Z,7.30
2023-03-11T09:52:16.602Z,7.40
2023-03-11T09:54:47.636Z,7.50
2023-03-11T09:57:28.399Z,7.60
2023-03-11T09:59:56.119Z,7.60
2023-03-11T10:02:27.147Z,7.70
2023-03-11T10:04:59.440Z,7.80
2023-03-11T10:07:33.523Z,7.80
2023-03-11T10:10:00.866Z,7.90
2023-03-11T10:13:07.864Z,7.90
2023-03-11T10:18:09.425Z,7.90
2023-03-11T10:20:53.563Z,7.90
2023-03-11T10:24:21.752Z,7.90
2023-03-11T10:26:52.882Z,8.00
2023-03-11T10:32:14.653Z,8.20
2023-03-11T10:34:53.605Z,8.10
2023-03-11T10:37:48.050Z,8.40
2023-03-11T10:40:34.636Z,8.50
2023-03-11T10:43:06.003Z,8.60
2023-03-11T10:45:44.862Z,8.70
2023-03-11T10:48:17.276Z,8.80
2023-03-11T10:50:58.064Z,8.90
2023-03-11T10:53:25.256Z,8.90
2023-03-11T10:55:55.829Z,9.00
2023-03-11T10:58:25.992Z,7.90
2023-03-11T11:01:21.656Z,9.10
2023-03-11T11:03:51.470Z,9.20
2023-03-11T11:06:31.682Z,9.20
2023-03-11T11:09:22.251Z,9.30
2023-03-11T11:12:15.760Z,9.30
2023-03-11T11:14:46.705Z,9.40
2023-03-11T11:17:32.453Z,9.40
2023-03-11T11:20:01.212Z,9.40
2023-03-11T11:22:28.872Z,9.40
2023-03-11T11:24:56.492Z,9.50
2023-03-11T11:27:32.880Z,9.50
2023-03-11T11:30:09.015Z,9.40
2023-03-11T11:32:37.265Z,9.50
2023-03-11T11:35:07.320Z,9.40
2023-03-11T11:37:37.863Z,9.40
2023-03-11T11:40:20.057Z,9.40
2023-03-11T11:42:55.945Z,9.40
2023-03-11T11:45:35.173Z,9.30
2023-03-11T11:48:15.321Z,9.40
2023-03-11T11:50:52.017Z,9.30
2023-03-11T11:53:24.813Z,9.30
2023-03-11T11:55:53.930Z,9.30
2023-03-11T11:58:23.818Z,9.30
2023-03-11T12:05:58.104Z,9.20
2023-03-11T12:08:47.480Z,9.20
2023-03-11T12:11:32.809Z,9.30
2023-03-11T12:14:21.591Z,9.20
2023-03-11T12:16:59.075Z,9.30
2023-03-11T12:19:50.845Z,9.30
2023-03-11T12:22:59.735Z,9.30
2023-03-11T12:25:54.282Z,9.30
2023-03-11T12:28:36.029Z,9.30
2023-03-11T12:31:07.676Z,9.30
2023-03-11T12:33:38.360Z,9.30
2023-03-11T12:36:07.222Z,9.30
2023-03-11T12:38:40.271Z,9.20
2023-03-11T12:41:08.811Z,9.20
2023-03-11T12:46:05.336Z,9.20
2023-03-11T12:48:34.010Z,9.20
2023-03-11T12:51:01.317Z,9.10
2023-03-11T12:53:49.091Z,9.20
2023-03-11T12:56:37.386Z,9.30
2023-03-11T12:59:19.529Z,9.30
2023-03-11T13:02:19.853Z,9.40
2023-03-11T13:05:09.996Z,9.30
2023-03-11T13:07:47.938Z,9.50
2023-03-11T13:10:36.425Z,9.60
2023-03-11T13:13:22.284Z,9.80
2023-03-11T13:15:50.938Z,9.90
2023-03-11T13:18:24.798Z,10.00
2023-03-11T13:20:59.430Z,9.90
2023-03-11T13:24:12.811Z,10.20
2023-03-11T13:26:50.881Z,10.30
2023-03-11T13:29:36.812Z,10.30
2023-03-11T13:32:21.398Z,10.30
2023-03-11T13:34:57.424Z,10.20
2023-03-11T13:37:42.981Z,10.10
2023-03-11T13:40:33.055Z,10.00
2023-03-11T13:43:26.385Z,9.90
2023-03-11T13:46:14.658Z,9.80
2023-03-11T13:48:48.066Z,9.70
2023-03-11T13:51:23.079Z,9.60
2023-03-11T13:54:09.268Z,9.50
2023-03-11T13:56:44.397Z,9.50
2023-03-11T13:59:17.992Z,9.30
2023-03-11T14:01:53.206Z,9.30
2023-03-11T14:04:26.681Z,9.20
2023-03-11T14:06:53.904Z,9.20
2023-03-11T14:09:22.835Z,9.20
2023-03-11T14:11:52.425Z,9.20
2023-03-11T14:14:44.845Z,9.20
2023-03-11T14:17:16.256Z,9.20
2023-03-11T14:19:44.296Z,9.20
2023-03-11T14:22:11.322Z,9.20
2023-03-11T14:24:39.676Z,9.10
2023-03-11T14:27:09.458Z,9.10
2023-03-11T14:29:37.542Z,9.10
2023-03-11T14:32:29.985Z,9.10
2023-03-11T14:34:57.701Z,9.00
2023-03-11T14:37:26.285Z,9.00
2023-03-11T14:42:35.580Z,9.00
2023-03-11T14:45:05.702Z,9.00
2023-03-11T14:47:32.611Z,9.00
2023-03-11T14:50:00.266Z,9.00
2023-03-11T14:52:47.750Z,9.00
2023-03-11T14:55:19.550Z,9.00
2023-03-11T14:57:51.101Z,8.10
2023-03-11T15:00:35.736Z,9.00
2023-03-11T15:03:17.571Z,9.20
2023-03-11T15:05:54.773Z,9.30
2023-03-11T15:08:25.767Z,9.40
2023-03-11T15:11:10.660Z,9.50
2023-03-11T15:13:39.136Z,9.70
2023-03-11T15:16:20.997Z,9.90
2023-03-11T15:18:48.103Z,10.00
2023-03-11T15:21:20.694Z,10.10
2023-03-11T15:24:06.389Z,10.20
2023-03-11T15:26:35.921Z,10.30
2023-03-11T15:29:23.263Z,10.50
2023-03-11T15:31:50.354Z,9.10
2023-03-11T15:34:17.119Z,10.60
2023-03-11T15:36:50.011Z,10.80
2023-03-11T15:39:24.800Z,10.90
2023-03-11T15:42:01.362Z,12.40
2023-03-11T15:44:33.371Z,11.00
2023-03-11T15:47:00.948Z,11.10
2023-03-11T15:49:29.485Z,11.20
2023-03-11T15:52:00.184Z,11.30
2023-03-11T15:54:27.543Z,11.40
2023-03-11T15:56:57.873Z,11.40
2023-03-11T15:59:25.519Z,11.60
2023-03-11T16:01:52.372Z,11.70
2023-03-11T16:04:20.453Z,11.90
2023-03-11T16:06:59.425Z,12.30
2023-03-11T16:09:31.600Z,12.40
2023-03-11T16:11:58.486Z,12.60
2023-03-11T16:14:25.444Z,12.70
2023-03-11T16:16:52.271Z,12.80
2023-03-11T16:19:19.091Z,12.80
2023-03-11T16:21:50.239Z,12.80
2023-03-11T16:24:21.004Z,12.80
2023-03-11T16:31:48.886Z,12.60
2023-03-11T16:39:10.382Z,12.30
2023-03-11T16:41:42.668Z,12.30
2023-03-11T16:44:10.074Z,12.20
2023-03-11T16:54:00.386Z,11.80
2023-03-11T17:01:23.861Z,11.40
2023-03-11T17:03:52.328Z,11.30
2023-03-11T17:06:20.351Z,11.20
2023-03-11T17:08:49.638Z,11.10
2023-03-11T17:11:22.953Z,11.00
2023-03-11T17:13:53.382Z,10.80
2023-03-11T17:16:21.284Z,10.80
2023-03-11T17:18:48.116Z,10.60
2023-03-11T17:21:16.437Z,10.50
2023-03-11T17:23:43.891Z,10.40
2023-03-11T17:26:13.237Z,10.30
2023-03-11T17:31:15.205Z,10.10
2023-03-11T17:33:42.581Z,10.00
2023-03-11T17:36:13.744Z,9.90
2023-03-11T17:38:40.584Z,9.80
2023-03-11T17:41:12.562Z,9.80
2023-03-11T17:43:40.197Z,9.70
2023-03-11T17:46:09.376Z,9.60
2023-03-11T17:48:36.376Z,9.50
2023-03-11T17:51:12.112Z,9.40
2023-03-11T17:53:40.446Z,9.30
2023-03-11T17:56:07.958Z,9.30
2023-03-11T17:58:35.454Z,11.60
2023-03-11T18:01:08.462Z,9.10
2023-03-11T18:06:05.080Z,8.90
2023-03-11T18:08:32.777Z,8.80
2023-03-11T18:11:08.464Z,8.80
2023-03-11T18:13:35.977Z,8.70
2023-03-11T18:16:15.160Z,8.60
2023-03-11T18:18:43.248Z,8.50
2023-03-11T18:21:16.339Z,8.50
2023-03-11T18:26:13.738Z,8.30
2023-03-11T18:31:12.771Z,8.20
2023-03-11T18:33:41.305Z,8.10
2023-03-11T18:36:33.170Z,8.10
2023-03-11T18:39:01.611Z,8.00
2023-03-11T18:41:31.802Z,7.90
2023-03-11T18:43:59.219Z,7.90
2023-03-11T18:46:28.818Z,7.80
2023-03-11T18:48:57.631Z,7.70
2023-03-11T18:51:26.418Z,7.70
2023-03-11T18:53:53.212Z,7.60
2023-03-11T18:56:20.257Z,7.50
2023-03-11T18:58:47.500Z,7.50
2023-03-11T19:01:20.363Z,7.50
2023-03-11T19:04:05.988Z,7.40
2023-03-11T19:06:32.890Z,7.30
2023-03-11T19:08:59.809Z,7.30
2023-03-11T19:13:54.785Z,7.20
2023-03-11T19:16:24.953Z,7.20
2023-03-11T19:18:53.899Z,7.10
2023-03-11T19:21:22.280Z,7.10
2023-03-11T19:28:50.706Z,6.90
2023-03-11T19:31:17.648Z,6.90
2023-03-11T19:33:50.120Z,6.70
2023-03-11T19:36:17.594Z,6.80
2023-03-11T19:38:44.543Z,6.80
2023-03-11T19:41:18.993Z,6.80
2023-03-11T19:43:47.411Z,6.70
2023-03-11T19:46:17.328Z,6.70
2023-03-11T19:56:08.800Z,6.60
2023-03-11T20:01:04.129Z,6.50
2023-03-11T20:03:31.704Z,6.50
2023-03-11T20:06:04.798Z,6.40
2023-03-11T20:08:36.451Z,6.40
2023-03-11T20:16:07.706Z,6.30
2023-03-11T20:18:34.824Z,6.30
2023-03-11T20:21:06.537Z,6.20
2023-03-11T20:26:05.861Z,6.20
2023-03-11T20:31:06.407Z,6.10
2023-03-11T20:33:33.820Z,6.10
2023-03-11T20:36:08.736Z,6.10
2023-03-11T20:41:08.261Z,6.00
2023-03-11T20:43:36.381Z,6.00
2023-03-11T20:46:04.499Z,6.00
2023-03-11T20:48:31.854Z,6.00
2023-03-11T20:51:07.609Z,5.90
2023-03-11T20:56:08.246Z,5.90
2023-03-11T20:58:35.995Z,5.90
2023-03-11T21:01:16.386Z,5.80
2023-03-11T21:03:44.275Z,5.80
2023-03-11T21:06:23.289Z,5.80
2023-03-11T21:08:52.676Z,5.80
2023-03-11T21:16:14.921Z,5.70
2023-03-11T21:18:44.327Z,5.70
2023-03-11T21:21:12.850Z,5.70
2023-03-11T21:23:41.137Z,5.60
2023-03-11T21:26:08.570Z,5.60
2023-03-11T21:31:06.477Z,5.60
2023-03-11T21:36:01.398Z,5.50
2023-03-11T21:38:29.319Z,5.50
2023-03-11T21:41:07.722Z,5.50
2023-03-11T21:48:30.038Z,5.40
2023-03-11T21:50:57.058Z,5.40
2023-03-11T21:53:23.902Z,5.40
2023-03-11T21:55:52.152Z,5.40
2023-03-11T21:58:19.505Z,5.30
2023-03-11T22:15:33.762Z,5.30
2023-03-11T22:18:00.641Z,5.30
2023-03-11T22:20:27.821Z,5.30
2023-03-11T22:22:54.703Z,5.20
2023-03-11T22:25:21.547Z,5.20
2023-03-11T22:35:10.420Z,5.20
2023-03-11T22:40:09.977Z,5.20
2023-03-11T22:42:37.583Z,5.20
2023-03-11T22:45:06.248Z,5.20
2023-03-11T22:47:33.489Z,5.10
2023-03-11T22:54:55.039Z,5.10
2023-03-11T22:57:21.935Z,5.10
2023-03-11T23:04:46.620Z,5.10
2023-03-11T23:07:13.495Z,5.00
2023-03-11T23:09:42.866Z,5.00
2023-03-11T23:17:12.668Z,5.00
2023-03-11T23:19:39.633Z,4.90
2023-03-11T23:24:34.170Z,4.90
2023-03-11T23:39:21.171Z,4.80
2023-03-11T23:49:10.429Z,4.80
2023-03-11T23:56:31.845Z,5.30
